Time;durP1;ratioP1;P1;durP2;ratioP2;P2;SDS_P1;SDS_P2;PMS_P1;PMS_P2;Temp;Humidity;BMP_temperature;BMP_pressure;BME280_temperature;BME280_humidity;BME280_pressure;Samples;Min_cycle;Max_cycle;Signal;HPM_P1;HPM_P2
2023/02/20 00:02:15;;;;;;;4.60;2.47;;;;;;;;;;5022714;28;20388;-68
2023/02/20 00:04:41;;;;;;;8.00;2.70;;;;;;;;;;5024689;28;20430;-74
2023/02/20 00:07:06;;;;;;;6.85;3.00;;;;;;;;;;5026034;28;20370;-70
2023/02/20 00:09:31;;;;;;;3.37;2.13;;;;;;;;;;5020156;28;20044;-69
2023/02/20 00:11:56;;;;;;;8.37;2.60;;;;;;;;;;5020298;28;20280;-71
2023/02/20 00:14:22;;;;;;;4.47;2.03;;;;;;;;;;5023402;28;20813;-69
2023/02/20 00:16:47;;;;;;;5.32;2.75;;;;;;;;;;5021232;28;20116;-69
2023/02/20 00:19:12;;;;;;;9.35;2.35;;;;;;;;;;5025071;28;20060;-72
2023/02/20 00:21:43;;;;;;;7.00;2.40;;;;;;;;;;5020355;28;20030;-70
2023/02/20 00:24:08;;;;;;;4.13;2.08;;;;;;;;;;5028738;28;20304;-68
2023/02/20 00:26:33;;;;;;;11.30;2.27;;;;;;;;;;5021062;28;20067;-66
2023/02/20 00:28:59;;;;;;;6.33;2.30;;;;;;;;;;5019859;28;20338;-68
2023/02/20 00:31:24;;;;;;;8.07;2.50;;;;;;;;;;5025416;28;21484;-71
2023/02/20 00:33:49;;;;;;;4.53;1.70;;;;;;;;;;5017806;28;20682;-68
2023/02/20 00:36:18;;;;;;;7.30;2.20;;;;;;;;;;5014739;28;20690;-69
2023/02/20 00:38:44;;;;;;;4.93;2.40;;;;;;;;;;5016213;28;20374;-68
2023/02/20 00:41:11;;;;;;;7.07;2.45;;;;;;;;;;5024215;28;20025;-71
2023/02/20 00:43:37;;;;;;;4.20;2.08;;;;;;;;;;5025003;28;20076;-69
2023/02/20 00:46:03;;;;;;;8.23;2.53;;;;;;;;;;5025237;28;20124;-71
2023/02/20 00:48:28;;;;;;;5.25;2.85;;;;;;;;;;5013566;28;20021;-71
2023/02/20 00:50:53;;;;;;;3.83;2.40;;;;;;;;;;5025251;28;20112;-69
2023/02/20 00:53:18;;;;;;;6.97;2.40;;;;;;;;;;5016174;28;20281;-70
2023/02/20 00:55:44;;;;;;;7.43;2.30;;;;;;;;;;5029096;28;20314;-69
2023/02/20 00:58:09;;;;;;;4.47;2.45;;;;;;;;;;5022876;28;20037;-69
2023/02/20 01:00:34;;;;;;;5.53;2.00;;;;;;;;;;5025255;28;20013;-67
2023/02/20 01:02:59;;;;;;;7.53;2.50;;;;;;;;;;5024057;28;20311;-67
2023/02/20 01:05:25;;;;;;;6.57;2.70;;;;;;;;;;5026460;28;20033;-69
2023/02/20 01:07:50;;;;;;;4.40;2.20;;;;;;;;;;5029471;28;20009;-68
2023/02/20 01:10:15;;;;;;;4.80;2.25;;;;;;;;;;5027639;28;20280;-68
2023/02/20 01:12:40;;;;;;;5.03;2.35;;;;;;;;;;5025519;28;20047;-66
2023/02/20 01:15:06;;;;;;;6.80;2.22;;;;;;;;;;5028203;28;20029;-67
2023/02/20 01:17:31;;;;;;;6.78;2.15;;;;;;;;;;5019165;28;20438;-81
2023/02/20 01:19:57;;;;;;;5.47;2.40;;;;;;;;;;5024872;28;20040;-68
2023/02/20 01:22:22;;;;;;;6.65;2.22;;;;;;;;;;5024644;28;20120;-67
2023/02/20 01:24:47;;;;;;;4.40;1.75;;;;;;;;;;5027520;28;20036;-67
2023/02/20 01:27:13;;;;;;;7.87;1.87;;;;;;;;;;5033141;28;20022;-69
2023/02/20 01:29:38;;;;;;;5.60;2.30;;;;;;;;;;5031581;28;20766;-68
2023/02/20 01:32:03;;;;;;;5.57;2.33;;;;;;;;;;5020010;28;20752;-68
2023/02/20 01:34:28;;;;;;;7.32;2.17;;;;;;;;;;5029744;28;20029;-77
2023/02/20 01:36:54;;;;;;;8.80;2.38;;;;;;;;;;5020866;28;20489;-69
2023/02/20 01:39:20;;;;;;;3.78;2.70;;;;;;;;;;5028362;28;20025;-69
2023/02/20 01:41:47;;;;;;;6.22;2.55;;;;;;;;;;5019560;28;20461;-68
2023/02/20 01:44:23;;;;;;;5.72;2.67;;;;;;;;;;5031745;28;20042;-67
2023/02/20 01:46:52;;;;;;;4.88;2.22;;;;;;;;;;5022918;28;20018;-67
2023/02/20 01:49:17;;;;;;;;;;;;;;;;;;5021957;28;20108;-67
2023/02/20 01:51:44;;;;;;;7.80;2.42;;;;;;;;;;5017429;28;20026;-69
2023/02/20 01:54:13;;;;;;;5.82;2.30;;;;;;;;;;5021909;28;20101;-76
2023/02/20 01:56:38;;;;;;;4.35;2.40;;;;;;;;;;5020280;28;20025;-67
2023/02/20 01:59:05;;;;;;;6.10;2.30;;;;;;;;;;5030337;28;20037;-68
2023/02/20 02:01:31;;;;;;;3.67;2.05;;;;;;;;;;5026202;28;20531;-66
2023/02/20 02:03:58;;;;;;;5.35;2.15;;;;;;;;;;5021226;28;20042;-66
2023/02/20 02:06:24;;;;;;;7.53;2.03;;;;;;;;;;5017077;28;20108;-67
2023/02/20 02:08:50;;;;;;;6.07;2.22;;;;;;;;;;5017794;28;20104;-67
2023/02/20 02:11:17;;;;;;;4.85;2.17;;;;;;;;;;5018507;28;20489;-75
2023/02/20 02:13:42;;;;;;;3.95;1.92;;;;;;;;;;5024845;28;20535;-69
2023/02/20 02:16:17;;;;;;;7.28;2.25;;;;;;;;;;5014660;28;20018;-70
2023/02/20 02:18:54;;;;;;;5.10;2.17;;;;;;;;;;5020488;28;20029;-68
2023/02/20 02:21:58;;;;;;;5.93;2.10;;;;;;;;;;5023161;28;20026;-68
2023/02/20 02:24:34;;;;;;;5.68;2.17;;;;;;;;;;5025135;28;20432;-70
2023/02/20 02:27:25;;;;;;;6.38;2.20;;;;;;;;;;5025684;28;20026;-72
2023/02/20 02:29:50;;;;;;;3.65;2.00;;;;;;;;;;5022888;28;20060;-71
2023/02/20 02:32:15;;;;;;;4.77;2.23;;;;;;;;;;5033597;28;20380;-79
2023/02/20 02:34:43;;;;;;;5.97;2.23;;;;;;;;;;5005533;28;20025;-79
2023/02/20 02:37:25;;;;;;;8.05;2.50;;;;;;;;;;5025438;28;20064;-81
2023/02/20 02:39:58;;;;;;;5.53;2.90;;;;;;;;;;5024343;28;20405;-81
2023/02/20 02:42:41;;;;;;;7.28;2.20;;;;;;;;;;5016734;28;20037;-81
2023/02/20 02:45:13;;;;;;;7.07;2.28;;;;;;;;;;5012236;28;20045;-82
2023/02/20 02:47:38;;;;;;;5.20;1.80;;;;;;;;;;5007447;28;20049;-81
2023/02/20 02:50:11;;;;;;;11.87;3.33;;;;;;;;;;5007780;28;20060;-70
2023/02/20 02:52:37;;;;;;;7.18;2.08;;;;;;;;;;5018602;28;20033;-74
2023/02/20 02:55:07;;;;;;;6.55;2.08;;;;;;;;;;5016490;28;20398;-77
2023/02/20 02:57:32;;;;;;;7.30;2.10;;;;;;;;;;5023772;28;20028;-75
2023/02/20 03:00:03;;;;;;;5.00;1.80;;;;;;;;;;5023989;28;20079;-76
2023/02/20 03:02:31;;;;;;;5.15;2.03;;;;;;;;;;5014419;28;20132;-74
2023/02/20 03:04:57;;;;;;;4.70;2.08;;;;;;;;;;5024165;28;20364;-73
2023/02/20 03:07:23;;;;;;;2.60;1.58;;;;;;;;;;5016684;28;20109;-83
2023/02/20 03:09:55;;;;;;;7.63;2.38;;;;;;;;;;5020147;28;20105;-71
2023/02/20 03:12:21;;;;;;;3.72;1.95;;;;;;;;;;5021393;28;20097;-69
2023/02/20 03:17:45;;;;;;;6.15;1.67;;;;;;;;;;5011532;28;20390;-68
2023/02/20 03:20:12;;;;;;;3.47;1.48;;;;;;;;;;5028382;28;20018;-71
2023/02/20 03:22:41;;;;;;;3.80;1.83;;;;;;;;;;5017949;28;20492;-70
2023/02/20 03:25:12;;;;;;;5.35;2.00;;;;;;;;;;5023306;28;20021;-68
2023/02/20 03:27:43;;;;;;;3.50;1.95;;;;;;;;;;5019687;28;20022;-75
2023/02/20 03:30:20;;;;;;;4.38;1.90;;;;;;;;;;5022922;28;20032;-72
2023/02/20 03:43:46;;;;;;;8.75;2.33;;;;;;;;;;5022907;28;20186;-79
2023/02/20 03:46:13;;;;;;;6.05;2.72;;;;;;;;;;5018798;28;20153;-81
2023/02/20 03:48:41;;;;;;;7.35;1.80;;;;;;;;;;5021464;28;20021;-80
2023/02/20 03:51:07;;;;;;;2.47;1.35;;;;;;;;;;5021265;28;20060;-79
2023/02/20 03:53:32;;;;;;;3.30;1.80;;;;;;;;;;5009217;28;20018;-80
2023/02/20 03:55:59;;;;;;;4.07;2.08;;;;;;;;;;5017034;28;20045;-80
2023/02/20 03:58:26;;;;;;;7.07;3.35;;;;;;;;;;5020469;28;20025;-81
2023/02/20 04:00:54;;;;;;;6.80;2.05;;;;;;;;;;5021361;28;20010;-70
2023/02/20 04:03:22;;;;;;;5.47;2.28;;;;;;;;;;5014588;28;20038;-68
2023/02/20 04:05:49;;;;;;;4.00;1.80;;;;;;;;;;5021740;28;20025;-70
2023/02/20 04:08:19;;;;;;;3.80;2.35;;;;;;;;;;5022806;28;20023;-69
2023/02/20 04:10:58;;;;;;;5.40;2.38;;;;;;;;;;5016453;28;20025;-68
2023/02/20 04:13:24;;;;;;;4.35;2.03;;;;;;;;;;5020918;28;20029;-69
2023/02/20 04:15:50;;;;;;;4.93;2.28;;;;;;;;;;5020841;28;20017;-69
2023/02/20 04:18:18;;;;;;;6.50;1.88;;;;;;;;;;5019780;28;20643;-68
2023/02/20 04:20:45;;;;;;;4.88;1.92;;;;;;;;;;5021204;28;20023;-81
2023/02/20 04:23:15;;;;;;;6.47;2.30;;;;;;;;;;5018563;28;20037;-69
2023/02/20 04:25:45;;;;;;;8.05;1.90;;;;;;;;;;5011534;28;20029;-70
2023/02/20 04:28:11;;;;;;;5.78;2.30;;;;;;;;;;5021834;28;20029;-69
2023/02/20 04:30:36;;;;;;;5.85;2.42;;;;;;;;;;5024258;28;20419;-69
2023/02/20 04:33:02;;;;;;;6.05;2.45;;;;;;;;;;5017326;28;20362;-69
2023/02/20 04:35:27;;;;;;;6.32;2.28;;;;;;;;;;5018880;28;20013;-68
2023/02/20 04:37:52;;;;;;;5.95;2.40;;;;;;;;;;5015089;28;20125;-69
2023/02/20 04:40:19;;;;;;;3.43;2.17;;;;;;;;;;5020715;28;20071;-69
2023/02/20 04:42:45;;;;;;;9.10;2.55;;;;;;;;;;5024833;28;20407;-74
2023/02/20 04:45:11;;;;;;;7.72;2.47;;;;;;;;;;5013593;28;20104;-74
2023/02/20 04:47:36;;;;;;;5.70;1.70;;;;;;;;;;5018594;28;20463;-74
2023/02/20 04:50:02;;;;;;;7.32;1.92;;;;;;;;;;5013000;28;20037;-74
2023/02/20 04:52:27;;;;;;;7.95;2.10;;;;;;;;;;5012766;28;20017;-74
2023/02/20 04:54:52;;;;;;;5.03;2.70;;;;;;;;;;5017233;28;20634;-74
2023/02/20 04:57:18;;;;;;;6.40;2.27;;;;;;;;;;5012422;28;20628;-78
2023/02/20 04:59:43;;;;;;;8.43;2.35;;;;;;;;;;5017177;28;20447;-72
2023/02/20 05:02:08;;;;;;;6.60;2.50;;;;;;;;;;5017020;28;20041;-71
2023/02/20 05:04:34;;;;;;;5.00;1.95;;;;;;;;;;5014467;28;20037;-71
2023/02/20 05:07:00;;;;;;;5.95;2.60;;;;;;;;;;5019094;28;20037;-71
2023/02/20 05:09:25;;;;;;;10.82;3.00;;;;;;;;;;5015618;28;20032;-70
2023/02/20 05:11:50;;;;;;;3.88;2.13;;;;;;;;;;5021447;28;20014;-71
2023/02/20 05:14:16;;;;;;;8.07;2.63;;;;;;;;;;5017891;28;20013;-73
2023/02/20 05:16:41;;;;;;;6.78;3.15;;;;;;;;;;5019938;28;20862;-82
2023/02/20 05:19:07;;;;;;;7.20;2.33;;;;;;;;;;5017012;28;20030;-71
2023/02/20 05:24:16;;;;;;;4.05;2.13;;;;;;;;;;5019209;28;20037;-71
2023/02/20 05:26:41;;;;;;;7.35;2.72;;;;;;;;;;5021617;28;20468;-70
2023/02/20 05:29:08;;;;;;;5.93;2.23;;;;;;;;;;5019945;28;20091;-70
2023/02/20 05:31:34;;;;;;;5.28;2.20;;;;;;;;;;5021865;28;20332;-72
2023/02/20 05:33:59;;;;;;;6.35;2.80;;;;;;;;;;5016739;28;20030;-71
2023/02/20 05:36:24;;;;;;;5.57;2.45;;;;;;;;;;5025103;28;20493;-69
2023/02/20 05:38:49;;;;;;;4.77;2.53;;;;;;;;;;5022399;28;20101;-69
2023/02/20 05:41:14;;;;;;;8.30;2.20;;;;;;;;;;5027646;28;20300;-69
2023/02/20 05:43:40;;;;;;;6.07;2.57;;;;;;;;;;5031838;28;20324;-68
2023/02/20 05:46:05;;;;;;;7.07;3.22;;;;;;;;;;5025056;28;20781;-68
2023/02/20 05:48:30;;;;;;;8.38;3.28;;;;;;;;;;5021216;28;20068;-68
2023/02/20 05:50:56;;;;;;;8.30;2.80;;;;;;;;;;5021198;28;20029;-69
2023/02/20 05:53:21;;;;;;;5.07;2.25;;;;;;;;;;5019338;28;20022;-70
2023/02/20 05:55:46;;;;;;;6.57;2.50;;;;;;;;;;5021666;28;20492;-69
2023/02/20 05:58:11;;;;;;;5.97;2.33;;;;;;;;;;5025741;28;20778;-69
2023/02/20 06:00:36;;;;;;;10.03;3.47;;;;;;;;;;5025393;28;20926;-70
2023/02/20 06:03:05;;;;;;;8.50;3.37;;;;;;;;;;5027111;28;20780;-71
2023/02/20 06:05:30;;;;;;;8.93;3.60;;;;;;;;;;5022854;28;20316;-69
2023/02/20 06:07:55;;;;;;;6.27;2.23;;;;;;;;;;5031657;28;20473;-69
2023/02/20 06:10:20;;;;;;;7.20;3.17;;;;;;;;;;5038846;28;20739;-69
2023/02/20 06:12:46;;;;;;;10.18;3.15;;;;;;;;;;5033979;28;20100;-69
2023/02/20 06:15:11;;;;;;;8.90;3.67;;;;;;;;;;5040758;28;20101;-68
2023/02/20 06:17:36;;;;;;;8.23;3.17;;;;;;;;;;5031721;28;20026;-69
2023/02/20 06:20:01;;;;;;;17.03;3.70;;;;;;;;;;5027212;28;20273;-68
2023/02/20 06:22:26;;;;;;;8.47;3.00;;;;;;;;;;5023080;28;20303;-70
2023/02/20 06:24:52;;;;;;;7.83;3.10;;;;;;;;;;5020280;28;20300;-67
2023/02/20 06:27:17;;;;;;;8.70;2.87;;;;;;;;;;5021023;28;20272;-67
2023/02/20 06:29:42;;;;;;;7.20;3.57;;;;;;;;;;5024943;28;20280;-72
2023/02/20 06:32:07;;;;;;;6.40;2.90;;;;;;;;;;5026424;28;20263;-69
2023/02/20 06:34:33;;;;;;;5.60;2.67;;;;;;;;;;5027745;28;20483;-69
2023/02/20 06:37:01;;;;;;;5.57;2.75;;;;;;;;;;5026600;28;20021;-70
2023/02/20 06:39:27;;;;;;;5.72;3.10;;;;;;;;;;5027353;28;20136;-72
2023/02/20 06:41:52;;;;;;;6.95;2.53;;;;;;;;;;5029291;28;20132;-70
2023/02/20 06:44:17;;;;;;;7.30;3.07;;;;;;;;;;5027001;28;20041;-70
2023/02/20 06:46:42;;;;;;;6.72;3.30;;;;;;;;;;5028372;28;20280;-81
2023/02/20 06:49:08;;;;;;;7.43;2.95;;;;;;;;;;5028751;28;20105;-71
2023/02/20 06:51:33;;;;;;;6.80;3.53;;;;;;;;;;5023522;28;20025;-75
2023/02/20 06:53:59;;;;;;;6.03;2.97;;;;;;;;;;5025669;28;20472;-73
2023/02/20 06:56:26;;;;;;;10.27;3.08;;;;;;;;;;5033027;28;20020;-70
2023/02/20 06:58:52;;;;;;;8.13;3.88;;;;;;;;;;5032325;28;20018;-76
2023/02/20 07:01:18;;;;;;;7.43;3.25;;;;;;;;;;5028302;28;20070;-72
2023/02/20 07:03:47;;;;;;;7.93;2.95;;;;;;;;;;5035810;28;20516;-71
2023/02/20 07:06:12;;;;;;;11.48;3.38;;;;;;;;;;5026791;28;20361;-69
2023/02/20 07:08:38;;;;;;;7.10;3.47;;;;;;;;;;5027087;28;20091;-78
2023/02/20 07:11:03;;;;;;;7.50;2.90;;;;;;;;;;5026927;28;20068;-77
2023/02/20 07:13:28;;;;;;;6.68;3.08;;;;;;;;;;5024623;28;20280;-78
2023/02/20 07:15:54;;;;;;;7.68;2.95;;;;;;;;;;5019110;28;20029;-77
2023/02/20 07:18:22;;;;;;;8.27;3.20;;;;;;;;;;5026176;28;20379;-81
2023/02/20 07:20:48;;;;;;;8.82;3.10;;;;;;;;;;5030816;28;20382;-78
2023/02/20 07:23:13;;;;;;;11.77;3.10;;;;;;;;;;5018449;28;20398;-81
2023/02/20 07:25:38;;;;;;;9.23;4.37;;;;;;;;;;5027573;28;20480;-69
2023/02/20 07:28:03;;;;;;;7.17;3.40;;;;;;;;;;5024822;28;20276;-78
2023/02/20 07:30:28;;;;;;;7.55;3.10;;;;;;;;;;5020031;28;20276;-79
2023/02/20 07:32:54;;;;;;;11.03;4.13;;;;;;;;;;5018720;28;20030;-78
2023/02/20 07:35:19;;;;;;;9.93;4.37;;;;;;;;;;5023437;28;20276;-79
2023/02/20 07:37:44;;;;;;;9.57;3.53;;;;;;;;;;5020769;28;20755;-77
2023/02/20 07:40:11;;;;;;;9.83;3.53;;;;;;;;;;5020914;28;20763;-77
2023/02/20 07:42:36;;;;;;;7.60;3.65;;;;;;;;;;5025451;28;20415;-70
2023/02/20 07:45:01;;;;;;;10.68;3.90;;;;;;;;;;5037359;28;20307;-74
2023/02/20 07:47:26;;;;;;;7.30;3.95;;;;;;;;;;5023209;28;20028;-72
2023/02/20 07:49:52;;;;;;;8.97;3.47;;;;;;;;;;5020519;28;20037;-71
2023/02/20 07:52:17;;;;;;;11.27;3.47;;;;;;;;;;5034783;28;20384;-72
2023/02/20 07:54:42;;;;;;;13.67;3.77;;;;;;;;;;5021743;28;20626;-72
2023/02/20 07:57:07;;;;;;;7.63;2.60;;;;;;;;;;5024887;28;20675;-71
2023/02/20 07:59:33;;;;;;;7.25;2.97;;;;;;;;;;5019717;28;20276;-71
2023/02/20 08:01:58;;;;;;;10.70;5.00;;;;;;;;;;5019326;28;20033;-73
2023/02/20 08:04:23;;;;;;;7.28;3.47;;;;;;;;;;5023178;28;20406;-79
2023/02/20 08:06:48;;;;;;;7.20;3.20;;;;;;;;;;5027471;28;20022;-78
2023/02/20 08:09:13;;;;;;;7.03;3.77;;;;;;;;;;5024365;28;20281;-80
2023/02/20 08:11:39;;;;;;;6.95;3.50;;;;;;;;;;5028076;28;20273;-79
2023/02/20 08:14:05;;;;;;;8.50;3.03;;;;;;;;;;5030209;28;20048;-80
2023/02/20 08:16:30;;;;;;;8.77;3.67;;;;;;;;;;5032132;28;20017;-79
2023/02/20 08:18:55;;;;;;;10.05;3.60;;;;;;;;;;5027690;28;20029;-69
2023/02/20 08:21:21;;;;;;;9.55;3.30;;;;;;;;;;5022252;28;20150;-73
2023/02/20 08:23:46;;;;;;;9.60;3.83;;;;;;;;;;5028687;28;20196;-68
2023/02/20 08:26:12;;;;;;;6.07;2.72;;;;;;;;;;5026412;28;20085;-70
2023/02/20 08:28:37;;;;;;;13.95;3.65;;;;;;;;;;5025535;28;20040;-69
2023/02/20 08:31:03;;;;;;;9.02;3.33;;;;;;;;;;5024375;28;20021;-70
2023/02/20 08:33:28;;;;;;;7.03;4.07;;;;;;;;;;5014975;28;20025;-69
2023/02/20 08:35:54;;;;;;;9.00;3.17;;;;;;;;;;5023970;28;20044;-70
2023/02/20 08:38:30;;;;;;;4.78;2.80;;;;;;;;;;5021965;28;20501;-70
2023/02/20 08:40:55;;;;;;;8.85;3.03;;;;;;;;;;5017166;28;20222;-71
2023/02/20 08:43:21;;;;;;;8.07;3.20;;;;;;;;;;5026415;28;20041;-70
2023/02/20 08:45:46;;;;;;;7.05;2.65;;;;;;;;;;5022938;28;20385;-70
2023/02/20 08:48:11;;;;;;;5.83;2.60;;;;;;;;;;5024425;28;20045;-70
2023/02/20 08:50:37;;;;;;;7.47;2.58;;;;;;;;;;5020802;28;20288;-70
2023/02/20 08:53:02;;;;;;;7.18;3.20;;;;;;;;;;5022709;28;20388;-69
2023/02/20 08:55:27;;;;;;;11.07;2.95;;;;;;;;;;5031325;28;20254;-74
2023/02/20 08:57:52;;;;;;;9.50;3.53;;;;;;;;;;5019347;28;20109;-77
2023/02/20 09:00:18;;;;;;;9.63;2.80;;;;;;;;;;5020622;28;20375;-69
2023/02/20 09:02:45;;;;;;;5.82;2.22;;;;;;;;;;5019354;28;20311;-69
2023/02/20 09:05:10;;;;;;;5.90;2.30;;;;;;;;;;5019715;28;20025;-70
2023/02/20 09:07:35;;;;;;;4.40;2.10;;;;;;;;;;5019208;28;20479;-68
2023/02/20 09:10:01;;;;;;;9.02;2.90;;;;;;;;;;5018470;28;20930;-70
2023/02/20 09:12:26;;;;;;;7.45;2.85;;;;;;;;;;5023231;28;20504;-69
2023/02/20 09:14:51;;;;;;;7.37;2.50;;;;;;;;;;5024853;28;20482;-69
2023/02/20 09:17:17;;;;;;;6.73;2.53;;;;;;;;;;5011194;28;20307;-70
2023/02/20 09:19:42;;;;;;;8.10;2.63;;;;;;;;;;5026021;28;20747;-72
2023/02/20 09:22:07;;;;;;;5.87;2.17;;;;;;;;;;5023067;28;20108;-70
2023/02/20 09:24:33;;;;;;;6.30;3.08;;;;;;;;;;5018237;28;20387;-69
2023/02/20 09:26:59;;;;;;;5.80;2.20;;;;;;;;;;5023477;28;20096;-71
2023/02/20 09:29:24;;;;;;;5.45;1.80;;;;;;;;;;5033050;28;20280;-70
2023/02/20 09:31:50;;;;;;;8.20;2.10;;;;;;;;;;5029761;28;20021;-70
2023/02/20 09:34:15;;;;;;;6.23;2.40;;;;;;;;;;5025878;28;20037;-70
2023/02/20 09:36:40;;;;;;;10.27;3.13;;;;;;;;;;5026437;28;20021;-75
2023/02/20 09:39:05;;;;;;;5.87;2.27;;;;;;;;;;5023835;28;20537;-78
2023/02/20 09:41:43;;;;;;;7.70;2.43;;;;;;;;;;5026993;28;20091;-78
2023/02/20 09:44:37;;;;;;;4.60;2.10;;;;;;;;;;5024169;28;20775;-78
2023/02/20 09:47:11;;;;;;;5.57;2.30;;;;;;;;;;5017146;28;20029;-79
2023/02/20 09:49:38;;;;;;;3.63;1.80;;;;;;;;;;5026355;28;20029;-77
2023/02/20 09:52:04;;;;;;;5.35;2.08;;;;;;;;;;5023400;28;20033;-70
2023/02/20 09:54:32;;;;;;;8.32;1.77;;;;;;;;;;5024084;28;20009;-81
2023/02/20 09:57:02;;;;;;;7.10;2.30;;;;;;;;;;5028535;28;20025;-81
2023/02/20 09:59:31;;;;;;;2.63;1.38;;;;;;;;;;5035563;28;20044;-83
2023/02/20 10:02:02;;;;;;;5.03;2.00;;;;;;;;;;5028546;28;20040;-84
2023/02/20 10:04:30;;;;;;;6.82;2.40;;;;;;;;;;5026263;28;20037;-82
2023/02/20 10:07:00;;;;;;;3.70;1.70;;;;;;;;;;5018668;28;20018;-81
2023/02/20 10:09:26;;;;;;;4.32;1.55;;;;;;;;;;5018990;28;20049;-71
2023/02/20 10:12:07;;;;;;;5.28;2.17;;;;;;;;;;5029342;28;20057;-81
2023/02/20 10:14:46;;;;;;;6.63;2.33;;;;;;;;;;5021424;28;20521;-69
2023/02/20 10:17:26;;;;;;;5.17;2.00;;;;;;;;;;5024556;28;20031;-72
2023/02/20 10:20:21;;;;;;;5.43;2.25;;;;;;;;;;5022319;28;20032;-69
2023/02/20 10:22:55;;;;;;;5.40;2.00;;;;;;;;;;5027470;28;20060;-69
2023/02/20 10:25:33;;;;;;;4.82;2.05;;;;;;;;;;5022498;28;20041;-70
2023/02/20 10:28:01;;;;;;;7.60;1.73;;;;;;;;;;5025330;28;20030;-79
2023/02/20 10:30:36;;;;;;;4.50;1.65;;;;;;;;;;5031030;28;20423;-70
2023/02/20 10:33:04;;;;;;;3.20;1.50;;;;;;;;;;5030173;28;20052;-81
2023/02/20 10:35:32;;;;;;;7.40;2.13;;;;;;;;;;5027919;28;20014;-81
2023/02/20 10:38:02;;;;;;;4.57;2.00;;;;;;;;;;5025496;28;20025;-81
2023/02/20 10:40:33;;;;;;;6.47;1.75;;;;;;;;;;5023900;28;20144;-81
2023/02/20 10:43:00;;;;;;;6.93;1.90;;;;;;;;;;5020230;28;20141;-83
2023/02/20 10:45:46;;;;;;;6.45;1.95;;;;;;;;;;5025702;28;20036;-82
2023/02/20 10:48:14;;;;;;;5.03;2.03;;;;;;;;;;5025214;28;20021;-79
2023/02/20 10:50:43;;;;;;;8.05;2.45;;;;;;;;;;5022090;28;20022;-72
2023/02/20 10:53:14;;;;;;;4.22;1.80;;;;;;;;;;5023816;28;20026;-70
2023/02/20 10:55:44;;;;;;;4.53;1.80;;;;;;;;;;5025347;28;20090;-71
2023/02/20 10:58:12;;;;;;;6.10;1.77;;;;;;;;;;5025182;28;20064;-72
2023/02/20 11:00:59;;;;;;;8.30;1.70;;;;;;;;;;5021977;28;20033;-70
2023/02/20 11:03:39;;;;;;;6.28;2.25;;;;;;;;;;5032089;28;20959;-70
2023/02/20 11:06:06;;;;;;;4.03;1.50;;;;;;;;;;5030706;28;20549;-71
2023/02/20 11:08:31;;;;;;;6.05;1.77;;;;;;;;;;5034804;28;20104;-68
2023/02/20 11:10:58;;;;;;;4.30;1.47;;;;;;;;;;5036332;28;20587;-69
2023/02/20 11:13:24;;;;;;;2.92;1.35;;;;;;;;;;5030224;28;20272;-69
2023/02/20 11:15:51;;;;;;;8.02;2.53;;;;;;;;;;5032217;28;20127;-72
2023/02/20 11:18:24;;;;;;;10.13;3.17;;;;;;;;;;5035056;28;20029;-69
2023/02/20 11:20:50;;;;;;;11.20;3.22;;;;;;;;;;5025279;28;20017;-72
2023/02/20 11:23:34;;;;;;;8.80;3.50;;;;;;;;;;5018221;28;20052;-68
2023/02/20 11:26:17;;;;;;;16.27;5.50;;;;;;;;;;5019277;28;20050;-66
2023/02/20 11:28:43;;;;;;;11.30;4.25;;;;;;;;;;5026463;28;20040;-66
2023/02/20 11:31:08;;;;;;;15.75;4.93;;;;;;;;;;5016361;28;20026;-66
2023/02/20 11:33:35;;;;;;;7.60;2.80;;;;;;;;;;5008705;28;20025;-65
2023/02/20 11:36:17;;;;;;;11.85;4.75;;;;;;;;;;5033574;28;20208;-65
2023/02/20 11:38:42;;;;;;;7.13;3.03;;;;;;;;;;5036290;28;20043;-65
2023/02/20 11:41:18;;;;;;;5.15;2.00;;;;;;;;;;5027526;28;20021;-61
2023/02/20 11:43:44;;;;;;;8.73;2.60;;;;;;;;;;5016463;28;20064;-61
2023/02/20 11:46:17;;;;;;;7.15;2.30;;;;;;;;;;5027819;28;20101;-79
2023/02/20 11:49:01;;;;;;;3.55;2.00;;;;;;;;;;5018702;28;20045;-82
2023/02/20 11:51:33;;;;;;;7.13;2.88;;;;;;;;;;5019899;28;20021;-79
2023/02/20 11:54:06;;;;;;;9.98;3.50;;;;;;;;;;5018408;28;20030;-79
2023/02/20 11:56:31;;;;;;;5.90;2.42;;;;;;;;;;5014156;28;20022;-78
2023/02/20 11:59:12;;;;;;;11.53;2.63;;;;;;;;;;5018231;28;20481;-81
2023/02/20 12:01:37;;;;;;;4.25;1.65;;;;;;;;;;5014328;28;20268;-62
2023/02/20 12:04:16;;;;;;;6.93;2.20;;;;;;;;;;5015256;28;20398;-62
2023/02/20 12:06:41;;;;;;;3.88;1.58;;;;;;;;;;5021397;28;20032;-61
2023/02/20 12:09:10;;;;;;;4.00;1.67;;;;;;;;;;5031053;28;20068;-60
2023/02/20 12:11:36;;;;;;;5.88;2.55;;;;;;;;;;5024530;28;20020;-61
2023/02/20 12:14:01;;;;;;;3.23;1.60;;;;;;;;;;5020226;28;20034;-63
2023/02/20 12:16:32;;;;;;;5.03;2.30;;;;;;;;;;5024353;28;20334;-61
2023/02/20 12:19:02;;;;;;;5.50;2.13;;;;;;;;;;5025027;28;20326;-59
2023/02/20 12:21:38;;;;;;;2.67;1.58;;;;;;;;;;5024993;28;20052;-61
2023/02/20 12:24:18;;;;;;;5.55;1.67;;;;;;;;;;5020333;28;20396;-60
2023/02/20 12:26:54;;;;;;;6.35;1.70;;;;;;;;;;5019219;28;20032;-59
2023/02/20 12:29:31;;;;;;;4.03;1.95;;;;;;;;;;5024252;28;20060;-62
2023/02/20 12:32:02;;;;;;;3.85;1.67;;;;;;;;;;5022088;28;20365;-60
2023/02/20 12:34:53;;;;;;;4.38;1.50;;;;;;;;;;5023827;28;20096;-63
2023/02/20 12:37:44;;;;;;;2.90;1.20;;;;;;;;;;5019225;28;20029;-65
2023/02/20 12:40:34;;;;;;;2.53;1.27;;;;;;;;;;5025381;28;20378;-67
2023/02/20 12:42:59;;;;;;;;;;;;;;;;;;5020036;28;20062;-67
2023/02/20 12:45:56;;;;;;;2.27;1.00;;;;;;;;;;5025172;28;20429;-65
2023/02/20 12:48:33;;;;;;;2.70;1.40;;;;;;;;;;5003627;28;20071;-64
2023/02/20 12:51:02;;;;;;;3.65;1.33;;;;;;;;;;5027567;28;20025;-64
2023/02/20 12:53:40;;;;;;;4.93;1.40;;;;;;;;;;5027733;28;20029;-66
2023/02/20 12:56:18;;;;;;;3.33;1.45;;;;;;;;;;5015747;28;20121;-64
2023/02/20 12:58:55;;;;;;;2.10;1.20;;;;;;;;;;5022104;28;20119;-60
2023/02/20 13:01:22;;;;;;;2.92;1.38;;;;;;;;;;5023067;28;20064;-60
2023/02/20 13:03:57;;;;;;;5.05;1.58;;;;;;;;;;5023391;28;20037;-60
2023/02/20 13:06:28;;;;;;;4.38;1.38;;;;;;;;;;5021040;28;20022;-60
2023/02/20 13:09:01;;;;;;;4.35;1.70;;;;;;;;;;5024326;28;20018;-59
2023/02/20 13:11:29;;;;;;;4.90;1.10;;;;;;;;;;5031086;28;20017;-61
2023/02/20 13:14:03;;;;;;;5.03;1.10;;;;;;;;;;5023224;28;20079;-60
2023/02/20 13:16:35;;;;;;;1.88;1.55;;;;;;;;;;5018788;28;20033;-62
2023/02/20 13:19:10;;;;;;;7.03;1.70;;;;;;;;;;5024660;28;20030;-61
2023/02/20 13:21:35;;;;;;;2.20;1.23;;;;;;;;;;5023460;28;20025;-64
2023/02/20 13:24:16;;;;;;;5.00;1.30;;;;;;;;;;5024201;28;20038;-62
2023/02/20 13:26:44;;;;;;;4.57;1.05;;;;;;;;;;5021886;28;20033;-61
2023/02/20 13:29:11;;;;;;;1.40;1.00;;;;;;;;;;5023355;28;20365;-61
2023/02/20 13:31:37;;;;;;;4.85;1.40;;;;;;;;;;5018811;28;20034;-68
2023/02/20 13:34:05;;;;;;;1.45;1.10;;;;;;;;;;5024289;28;20060;-85
2023/02/20 13:36:33;;;;;;;2.15;1.10;;;;;;;;;;5023485;28;20525;-66
2023/02/20 13:39:19;;;;;;;4.88;1.30;;;;;;;;;;5022441;28;20030;-68
2023/02/20 13:41:54;;;;;;;3.45;1.20;;;;;;;;;;5016691;28;20121;-66
2023/02/20 13:44:28;;;;;;;3.53;1.80;;;;;;;;;;5038879;28;20105;-66
2023/02/20 13:47:03;;;;;;;2.55;1.10;;;;;;;;;;5022197;28;20021;-66
2023/02/20 13:49:40;;;;;;;2.13;1.00;;;;;;;;;;5019791;28;20024;-68
2023/02/20 13:52:25;;;;;;;2.50;1.85;;;;;;;;;;5021093;28;20075;-68
2023/02/20 13:54:50;;;;;;;1.75;1.00;;;;;;;;;;5020191;28;20037;-66
2023/02/20 13:57:17;;;;;;;2.17;1.05;;;;;;;;;;5022739;28;20400;-63
2023/02/20 13:59:42;;;;;;;4.20;1.13;;;;;;;;;;5024045;28;20079;-66
2023/02/20 14:02:19;;;;;;;3.53;0.90;;;;;;;;;;5012522;28;20018;-63
2023/02/20 14:04:58;;;;;;;0.98;0.73;;;;;;;;;;5022854;28;20480;-71
2023/02/20 14:07:27;;;;;;;2.00;0.80;;;;;;;;;;5024366;28;20072;-71
2023/02/20 14:10:00;;;;;;;3.33;0.93;;;;;;;;;;5027235;28;20048;-69
2023/02/20 14:12:25;;;;;;;1.80;1.00;;;;;;;;;;5025559;28;20017;-73
2023/02/20 14:14:51;;;;;;;2.60;0.82;;;;;;;;;;5025735;28;20026;-72
2023/02/20 14:17:20;;;;;;;0.98;0.90;;;;;;;;;;5026110;28;20018;-70
2023/02/20 14:19:45;;;;;;;;;;;;;;;;;;5026560;28;20025;-71
2023/02/20 14:22:20;;;;;;;1.40;0.73;;;;;;;;;;5027950;28;19909;-71
2023/02/20 14:24:45;;;;;;;1.55;0.88;;;;;;;;;;5026710;28;20061;-70
2023/02/20 14:27:27;;;;;;;0.82;0.80;;;;;;;;;;5029501;28;20060;-71
2023/02/20 14:30:11;;;;;;;1.17;0.82;;;;;;;;;;5021423;28;20721;-75
2023/02/20 14:32:37;;;;;;;2.70;0.80;;;;;;;;;;5037252;28;20057;-70
2023/02/20 14:35:08;;;;;;;2.75;0.90;;;;;;;;;;5025535;28;20065;-70
2023/02/20 14:37:36;;;;;;;2.83;1.10;;;;;;;;;;5027489;28;20511;-72
2023/02/20 14:40:06;;;;;;;1.15;1.00;;;;;;;;;;5027460;28;20088;-72
2023/02/20 14:42:31;;;;;;;2.55;0.85;;;;;;;;;;5027345;28;20053;-71
2023/02/20 14:45:00;;;;;;;1.80;0.93;;;;;;;;;;5029182;28;20052;-71
2023/02/20 14:47:26;;;;;;;3.97;1.42;;;;;;;;;;5026203;28;20041;-69
2023/02/20 14:49:51;;;;;;;2.90;0.80;;;;;;;;;;5028030;28;20520;-72
2023/02/20 14:52:21;;;;;;;3.67;2.07;;;;;;;;;;5026834;28;20511;-74
2023/02/20 14:54:59;;;;;;;1.45;0.98;;;;;;;;;;5025332;28;20612;-76
2023/02/20 14:57:25;;;;;;;2.15;0.73;;;;;;;;;;5023962;28;20501;-72
2023/02/20 14:59:51;;;;;;;0.73;0.70;;;;;;;;;;5025830;28;20346;-73
2023/02/20 15:02:27;;;;;;;4.35;1.00;;;;;;;;;;5023494;28;20446;-77
2023/02/20 15:04:54;;;;;;;2.17;0.88;;;;;;;;;;5011793;28;20046;-73
2023/02/20 15:07:21;;;;;;;2.00;0.80;;;;;;;;;;5022042;28;20026;-78
2023/02/20 15:09:47;;;;;;;2.60;0.98;;;;;;;;;;5025462;28;20040;-80